الصفحة الرئيسية
METAR-TAF:

METAR-TAF

مطار :

Omak Airport

Omak, واشنطن, الولايات المتحدة

دائرة عرض: 48-27-51N, خط طول: 119-31-05W, ارتفاع: 397 متر

مراقبة الطقس الحالي

تاريخ ووقت الإصدار 49 دقيقة قبل الساعة 21:09UTC
ريح 9 عقدة من الشمال
درجة الحرارة 4°درجة مئوية
الرطوبة 65%
ضغط 1020 hPa
الرؤية: 16.1 كم
ملبد بالغيوم على ارتفاع 2800 قدم

METAR: KOMK 052109Z AUTO 01009KT 10SM OVC028 04/M02 A3012 RMK AO2 T00391017

زمن: 13:58 (21:58 UTC)


TAF: مفقودة

أرصاد الطقس والتوقعات من أكثر من 4000 مطار (تقارير الطقس للمطار METAR والتنبؤ بالطقس بالمطارTAF).

المحطات المتاحة هي النقط الصفراء والحمراء على الخريطة.

حرك المؤشر فوق النقطة لمعرفة اسم المحطة.

ثم انقر لمعرفة أرصاد وتوقعات الطقس.

لتغيير الخارطة: اضغط على الأزرار الخضراء مع رمز الصليب الأسود للتكبير. على الزر الأخضر مع شرطة للتصغير، أو على الأسهم الخضراء للخرائط المجاورة.


METAR-TAF: